Time;durP1;ratioP1;P1;durP2;ratioP2;P2;SDS_P1;SDS_P2;PMS_P1;PMS_P2;Temp;Humidity;BMP_temperature;BMP_pressure;BME280_temperature;BME280_humidity;BME280_pressure;Samples;Min_cycle;Max_cycle;Signal;HPM_P1;HPM_P2
2021/08/04 00:01:02;;;;;;;9.05;6.78;;;;;;;21.28;63.70;99832.56;1636017;86;21572;-68
2021/08/04 00:03:30;;;;;;;5.53;5.03;;;;;;;21.31;63.41;99834.09;1663116;85;21563;-68
2021/08/04 00:05:57;;;;;;;7.62;6.35;;;;;;;21.35;63.11;99830.71;1634978;86;21015;-68
2021/08/04 00:08:23;;;;;;;7.35;6.62;;;;;;;21.36;63.08;99837.24;1662982;85;21114;-68
2021/08/04 00:10:50;;;;;;;14.63;6.47;;;;;;;21.37;63.20;99835.31;1659085;86;21079;-68
2021/08/04 00:13:16;;;;;;;7.40;6.65;;;;;;;21.38;63.30;99843.22;1649566;86;21002;-68
2021/08/04 00:15:44;;;;;;;6.12;5.62;;;;;;;21.36;63.08;99839.98;1659415;86;21011;-68
2021/08/04 00:18:11;;;;;;;10.05;6.85;;;;;;;21.31;62.86;99843.67;1663251;86;21509;-69
2021/08/04 00:20:37;;;;;;;6.92;6.22;;;;;;;21.26;62.96;99852.02;1658968;86;21067;-67
2021/08/04 00:23:04;;;;;;;8.23;6.97;;;;;;;21.24;63.20;99850.73;1663011;86;20978;-69
2021/08/04 00:25:31;;;;;;;9.63;7.70;;;;;;;21.17;63.39;99848.45;1659026;86;21022;-68
2021/08/04 00:27:57;;;;;;;12.37;6.97;;;;;;;20.85;64.26;99856.96;1663184;86;21011;-68
2021/08/04 00:30:23;;;;;;;13.80;7.25;;;;;;;20.48;65.25;99852.70;1659029;85;21021;-69
2021/08/04 00:32:53;;;;;;;9.33;7.87;;;;;;;20.23;65.54;99849.20;1663068;85;22170;-69
2021/08/04 00:35:18;;;;;;;8.35;7.42;;;;;;;20.12;66.66;99845.91;1658634;86;21046;-69
2021/08/04 00:37:45;;;;;;;9.48;6.92;;;;;;;19.99;67.36;99845.40;1663044;85;20935;-69
2021/08/04 00:40:13;;;;;;;7.95;7.15;;;;;;;19.86;67.53;99841.58;1665525;85;21534;-70
2021/08/04 00:42:40;;;;;;;8.93;7.50;;;;;;;19.86;67.85;99855.78;1673219;85;21057;-67
2021/08/04 00:45:08;;;;;;;8.33;7.25;;;;;;;19.84;67.94;99858.84;1669242;86;23306;-66
2021/08/04 00:47:35;;;;;;;10.18;6.10;;;;;;;19.80;68.18;99863.30;1673047;85;20999;-68
2021/08/04 00:50:05;;;;;;;7.67;6.78;;;;;;;19.76;68.24;99865.00;1669250;84;21434;-67
2021/08/04 00:52:31;;;;;;;10.20;7.67;;;;;;;19.72;68.43;99856.36;1673071;84;21022;-69
2021/08/04 00:54:58;;;;;;;8.93;7.33;;;;;;;19.67;68.45;99853.74;1669295;86;21051;-70
2021/08/04 00:57:24;;;;;;;7.90;7.17;;;;;;;19.65;68.64;99860.89;1660990;85;21775;-69
2021/08/04 00:59:51;;;;;;;9.45;5.62;;;;;;;19.71;68.27;99855.55;1670489;85;21040;-70
2021/08/04 01:02:26;;;;;;;9.78;7.10;;;;;;;19.73;68.03;99855.26;1661189;85;21551;-69
2021/08/04 01:05:00;;;;;;;8.53;6.53;;;;;;;19.74;68.04;99859.61;1669242;84;21051;-68
2021/08/04 01:07:34;;;;;;;7.92;6.53;;;;;;;19.72;68.27;99861.83;1673334;85;21091;-69
2021/08/04 01:10:21;;;;;;;6.80;6.05;;;;;;;19.74;68.61;99862.34;1646548;86;22246;-68
2021/08/04 01:13:02;;;;;;;8.18;6.72;;;;;;;19.76;68.70;99862.85;1660907;85;21014;-68
2021/08/04 01:15:35;;;;;;;8.35;6.10;;;;;;;19.81;68.58;99870.91;1669357;85;21059;-68
2021/08/04 01:18:01;;;;;;;10.88;6.35;;;;;;;19.88;68.36;99865.29;1673296;85;21033;-66
2021/08/04 01:20:28;;;;;;;10.53;6.75;;;;;;;19.98;68.02;99869.72;1669328;86;21050;-67
2021/08/04 01:23:06;;;;;;;8.18;5.60;;;;;;;20.06;67.61;99864.07;1673132;84;21184;-67
2021/08/04 01:25:38;;;;;;;8.88;5.60;;;;;;;20.14;67.31;99864.72;1669218;86;20987;-72
2021/08/04 01:28:27;;;;;;;6.97;6.20;;;;;;;20.21;66.95;99860.44;1669031;85;21045;-70
2021/08/04 01:31:04;;;;;;;6.65;5.83;;;;;;;20.27;66.74;99863.86;1673844;84;21020;-72
2021/08/04 01:33:31;;;;;;;6.05;5.05;;;;;;;20.30;66.60;99859.13;1686863;84;21110;-68
2021/08/04 01:35:58;;;;;;;6.40;5.42;;;;;;;20.31;66.53;99860.78;1673392;85;22750;-68
2021/08/04 01:38:24;;;;;;;6.35;4.25;;;;;;;20.30;66.59;99857.77;1669148;86;21022;-67
2021/08/04 01:40:52;;;;;;;5.70;4.95;;;;;;;20.28;66.65;99862.75;1663857;84;21042;-69
2021/08/04 01:43:22;;;;;;;7.60;4.92;;;;;;;20.22;66.74;99855.78;1615249;86;21528;-69
2021/08/04 01:45:48;;;;;;;6.50;4.70;;;;;;;20.16;66.94;99848.81;1660609;85;21059;-71
2021/08/04 01:48:15;;;;;;;5.75;5.12;;;;;;;20.09;67.07;99848.45;1646903;85;21861;-70
2021/08/04 01:50:42;;;;;;;8.98;5.05;;;;;;;20.03;67.37;99851.30;1636138;86;20983;-70
2021/08/04 01:53:10;;;;;;;7.85;5.08;;;;;;;19.98;67.54;99856.87;1654638;86;21084;-65
2021/08/04 01:55:37;;;;;;;6.78;5.67;;;;;;;19.92;67.67;99850.46;1660081;86;20995;-67
2021/08/04 01:58:04;;;;;;;6.80;6.03;;;;;;;19.84;67.61;99842.45;1631485;88;21099;-69
2021/08/04 02:00:30;;;;;;;7.50;5.17;;;;;;;19.78;67.69;99849.14;1632042;88;21162;-68
2021/08/04 02:02:57;;;;;;;5.83;5.28;;;;;;;19.72;67.77;99850.35;1648759;86;21032;-68
2021/08/04 02:05:23;;;;;;;8.55;5.50;;;;;;;19.69;67.76;99847.44;1644346;86;21058;-69
2021/08/04 02:08:13;;;;;;;5.72;5.33;;;;;;;19.66;67.58;99855.69;1659030;86;21103;-71
2021/08/04 02:11:13;;;;;;;6.85;5.10;;;;;;;19.64;67.72;99853.00;1653084;86;21015;-69
2021/08/04 02:14:14;;;;;;;6.65;5.70;;;;;;;19.60;67.85;99858.27;1623629;86;22104;-67
2021/08/04 02:17:22;;;;;;;7.10;6.13;;;;;;;19.41;68.49;99861.64;1617277;88;21075;-69
2021/08/04 02:20:20;;;;;;;7.15;6.50;;;;;;;19.21;69.72;99865.58;1660055;85;21007;-69
2021/08/04 02:23:11;;;;;;;6.40;5.78;;;;;;;19.05;70.18;99865.60;1649458;86;21111;-70
2021/08/04 02:25:50;;;;;;;8.80;6.40;;;;;;;18.94;71.27;99861.47;1660140;86;21023;-72
2021/08/04 02:28:20;;;;;;;7.62;5.72;;;;;;;18.87;72.17;99865.13;1659306;86;21815;-69
2021/08/04 02:30:48;;;;;;;6.78;6.00;;;;;;;18.83;72.59;99860.02;1660189;86;21022;-70
2021/08/04 02:33:15;;;;;;;5.95;5.45;;;;;;;18.80;73.25;99864.14;1615888;87;21018;-70
2021/08/04 02:35:42;;;;;;;6.65;6.05;;;;;;;18.78;73.45;99861.48;1631855;86;21060;-71
2021/08/04 02:38:08;;;;;;;6.28;5.67;;;;;;;18.73;73.37;99863.73;1646064;86;20996;-69
2021/08/04 02:40:35;;;;;;;9.35;5.42;;;;;;;18.70;73.42;99857.54;1642689;85;22009;-70
2021/08/04 02:43:01;;;;;;;10.30;5.40;;;;;;;18.70;73.54;99856.95;1634668;87;20990;-71
2021/08/04 02:45:28;;;;;;;6.87;4.95;;;;;;;18.80;73.16;99860.05;1620234;87;21075;-71
2021/08/04 02:47:55;;;;;;;8.50;5.05;;;;;;;18.85;72.75;99868.14;1634587;87;21090;-70
2021/08/04 02:50:23;;;;;;;6.08;5.47;;;;;;;18.88;72.51;99871.65;1620224;87;21095;-71
2021/08/04 02:52:49;;;;;;;5.35;4.85;;;;;;;18.93;72.40;99868.83;1633651;87;22034;-69
2021/08/04 02:55:17;;;;;;;8.73;6.20;;;;;;;18.98;72.33;99874.20;1634628;87;20971;-70
2021/08/04 02:57:43;;;;;;;5.80;5.30;;;;;;;19.03;72.03;99878.19;1634698;87;21567;-70
2021/08/04 03:00:12;;;;;;;8.38;5.72;;;;;;;18.96;72.26;99881.85;1634762;87;21062;-70
2021/08/04 03:02:38;;;;;;;7.40;6.10;;;;;;;18.82;72.60;99885.66;1641564;86;21067;-71
2021/08/04 03:05:06;;;;;;;7.28;6.20;;;;;;;18.68;73.31;99884.27;1663202;85;21245;-72
2021/08/04 03:07:33;;;;;;;6.17;5.58;;;;;;;18.63;73.67;99885.70;1649128;86;20928;-69
2021/08/04 03:10:00;;;;;;;11.33;5.97;;;;;;;18.55;73.85;99887.76;1658062;85;20947;-70
2021/08/04 03:12:28;;;;;;;6.17;5.40;;;;;;;18.56;73.60;99891.53;1659176;86;21643;-71
2021/08/04 03:14:55;;;;;;;7.35;5.67;;;;;;;18.68;73.48;99888.34;1630581;86;21071;-71
2021/08/04 03:17:21;;;;;;;9.00;7.20;;;;;;;18.76;73.19;99895.02;1631855;86;22084;-71
2021/08/04 03:19:49;;;;;;;8.78;5.53;;;;;;;18.83;73.28;99899.55;1663098;85;21571;-71
2021/08/04 03:22:16;;;;;;;5.75;5.22;;;;;;;18.91;73.32;99890.12;1659206;86;21063;-71
2021/08/04 03:24:42;;;;;;;8.75;5.83;;;;;;;19.03;73.22;99889.65;1627472;87;21299;-71
2021/08/04 03:27:09;;;;;;;6.08;4.60;;;;;;;19.16;72.90;99895.67;1638565;86;21087;-72
2021/08/04 03:29:36;;;;;;;5.92;5.33;;;;;;;19.29;72.36;99895.41;1663072;85;21243;-72
2021/08/04 03:32:04;;;;;;;9.35;5.33;;;;;;;19.41;72.04;99897.91;1635092;86;21059;-72
2021/08/04 03:34:31;;;;;;;5.17;4.72;;;;;;;19.56;71.48;99898.20;1650187;85;21029;-71
2021/08/04 03:36:59;;;;;;;7.55;6.00;;;;;;;19.70;70.78;99900.36;1634859;87;21527;-71
2021/08/04 03:39:27;;;;;;;6.72;5.25;;;;;;;19.77;70.15;99895.83;1635791;86;21056;-71
2021/08/04 03:41:53;;;;;;;6.87;5.70;;;;;;;19.80;69.65;99907.52;1647548;86;21074;-71
2021/08/04 03:44:19;;;;;;;4.67;4.28;;;;;;;19.77;69.56;99898.56;1655863;86;21062;-72
2021/08/04 03:46:47;;;;;;;8.95;5.75;;;;;;;19.77;69.60;99902.66;1641648;86;21460;-72
2021/08/04 03:49:15;;;;;;;16.60;5.78;;;;;;;19.74;69.62;99901.36;1659236;86;20995;-72
2021/08/04 03:51:42;;;;;;;5.78;5.00;;;;;;;19.74;69.84;99900.55;1663187;85;21238;-72
2021/08/04 03:54:09;;;;;;;7.60;5.60;;;;;;;19.84;69.86;99909.34;1659095;86;21116;-73
2021/08/04 03:56:37;;;;;;;6.10;4.80;;;;;;;19.88;69.82;99914.43;1662986;86;21043;-71
2021/08/04 03:59:03;;;;;;;6.65;5.85;;;;;;;19.98;70.08;99922.96;1659282;86;21031;-72
2021/08/04 04:01:30;;;;;;;7.83;5.45;;;;;;;20.07;70.02;99920.31;1663041;85;22040;-70
2021/08/04 04:03:56;;;;;;;12.30;7.83;;;;;;;20.13;69.72;99917.72;1658673;86;21052;-71
2021/08/04 04:06:23;;;;;;;8.95;6.70;;;;;;;20.15;69.67;99928.58;1630580;86;21123;-69
2021/08/04 04:08:51;;;;;;;9.50;8.40;;;;;;;20.15;69.91;99924.48;1657722;86;21004;-70
2021/08/04 04:11:17;;;;;;;6.55;5.95;;;;;;;20.16;69.95;99931.56;1657805;86;21029;-71
2021/08/04 04:13:44;;;;;;;6.40;5.65;;;;;;;20.16;70.22;99931.56;1657758;86;21528;-70
2021/08/04 04:16:10;;;;;;;11.00;5.85;;;;;;;20.23;70.65;99940.16;1657883;86;21000;-69
2021/08/04 04:18:37;;;;;;;6.70;6.10;;;;;;;20.23;70.65;99940.16;1663036;85;21099;-69
2021/08/04 04:21:03;;;;;;;5.47;4.97;;;;;;;20.31;71.02;99935.91;1635020;86;21072;-69
2021/08/04 04:23:29;;;;;;;10.70;7.05;;;;;;;20.37;71.22;99939.59;1663073;85;21003;-70
2021/08/04 04:25:56;;;;;;;8.40;6.83;;;;;;;20.27;71.42;99943.08;1659160;86;21111;-69
2021/08/04 04:28:22;;;;;;;12.75;7.60;;;;;;;20.06;72.24;99948.17;1663326;85;21595;-69
2021/08/04 04:30:48;;;;;;;22.40;7.22;;;;;;;20.00;72.65;99957.02;1659083;86;21083;-69
2021/08/04 04:33:15;;;;;;;7.72;6.15;;;;;;;20.07;72.72;99948.42;1661766;85;21007;-70
2021/08/04 04:35:41;;;;;;;9.75;6.55;;;;;;;20.07;72.72;99948.42;1630501;86;20987;-70
2021/08/04 04:38:09;;;;;;;10.78;6.53;;;;;;;20.13;72.68;99944.48;1649071;86;21540;-69
2021/08/04 04:40:35;;;;;;;8.15;5.78;;;;;;;20.17;72.69;99942.74;1657923;86;21067;-70
2021/08/04 04:43:02;;;;;;;15.50;9.90;;;;;;;20.28;72.67;99940.60;1660426;86;21814;-72
2021/08/04 04:45:28;;;;;;;9.43;8.43;;;;;;;20.36;72.51;99937.97;1635208;86;21367;-69
2021/08/04 04:47:54;;;;;;;10.15;8.08;;;;;;;20.45;72.61;99937.48;1657845;86;21564;-69
2021/08/04 04:50:21;;;;;;;7.53;5.85;;;;;;;20.61;72.18;99937.12;1657742;86;21037;-70
2021/08/04 04:52:47;;;;;;;6.28;4.95;;;;;;;20.67;71.71;99936.67;1659068;86;21563;-70
2021/08/04 04:55:15;;;;;;;4.78;4.37;;;;;;;20.63;70.42;99934.31;1637478;86;21161;-70
2021/08/04 04:57:41;;;;;;;5.25;4.75;;;;;;;20.54;69.22;99938.91;1660883;86;21103;-70
2021/08/04 05:00:10;;;;;;;5.40;4.53;;;;;;;20.54;69.38;99933.45;1661073;85;20979;-68
2021/08/04 05:02:38;;;;;;;12.45;8.63;;;;;;;20.53;70.15;99933.78;1659987;85;20993;-70
2021/08/04 05:05:06;;;;;;;16.73;10.35;;;;;;;20.53;70.21;99940.02;1659884;86;21040;-69
2021/08/04 05:07:33;;;;;;;16.23;11.22;;;;;;;20.71;68.65;99951.91;1637505;86;21096;-68
2021/08/04 05:10:00;;;;;;;18.52;12.93;;;;;;;20.71;68.65;99951.91;1660517;86;21051;-70
2021/08/04 05:12:26;;;;;;;12.50;9.78;;;;;;;20.82;67.92;99957.36;1660704;86;21502;-71
2021/08/04 05:14:52;;;;;;;26.85;7.85;;;;;;;20.93;66.91;99963.39;1636599;85;21343;-69
2021/08/04 05:17:19;;;;;;;16.70;10.40;;;;;;;21.00;66.34;99968.69;1635137;86;21104;-69
2021/08/04 05:19:46;;;;;;;16.90;10.82;;;;;;;21.02;66.52;99969.17;1636902;86;21173;-68
2021/08/04 05:22:14;;;;;;;14.65;10.15;;;;;;;20.98;66.53;99964.08;1660319;85;21128;-68
2021/08/04 05:24:41;;;;;;;17.60;7.80;;;;;;;21.04;66.59;99966.13;1659336;86;20953;-70
2021/08/04 05:27:07;;;;;;;14.90;9.55;;;;;;;21.05;66.57;99958.98;1635241;86;21514;-68
2021/08/04 05:29:34;;;;;;;12.82;9.05;;;;;;;21.09;66.88;99970.11;1660664;86;21419;-69
2021/08/04 05:32:01;;;;;;;10.95;8.05;;;;;;;21.11;66.72;99968.66;1660529;86;21208;-68
2021/08/04 05:34:27;;;;;;;21.80;8.13;;;;;;;21.17;66.56;99968.81;1660626;85;21063;-68
2021/08/04 05:36:54;;;;;;;12.43;7.00;;;;;;;21.26;66.53;99969.67;1637624;86;21228;-69
2021/08/04 05:39:20;;;;;;;45.38;10.53;;;;;;;21.35;65.46;99965.60;1660663;86;21105;-70
2021/08/04 05:41:47;;;;;;;63.98;15.28;;;;;;;21.40;64.74;99959.99;1661170;85;21617;-68
2021/08/04 05:44:13;;;;;;;75.50;15.63;;;;;;;21.45;63.93;99963.16;1660351;86;21109;-69
2021/08/04 05:46:40;;;;;;;72.25;22.37;;;;;;;21.42;64.12;99968.71;1660523;86;20949;-70
2021/08/04 05:49:07;;;;;;;100.10;20.30;;;;;;;21.40;63.55;99965.47;1661315;86;21009;-69
2021/08/04 05:51:35;;;;;;;69.92;15.38;;;;;;;21.41;63.58;99959.44;1661595;85;21051;-69
2021/08/04 05:54:01;;;;;;;81.82;18.65;;;;;;;21.38;63.53;99965.55;1660486;86;21068;-68
2021/08/04 05:56:28;;;;;;;80.40;19.80;;;;;;;21.39;63.89;99972.64;1659844;85;21102;-70
2021/08/04 05:58:54;;;;;;;84.58;17.60;;;;;;;21.42;64.12;99974.19;1659926;85;21001;-71
2021/08/04 06:01:20;;;;;;;80.22;18.12;;;;;;;21.48;64.61;99978.97;1660080;86;21060;-72
2021/08/04 06:03:47;;;;;;;89.77;18.62;;;;;;;21.59;63.99;99971.52;1660115;85;21064;-72
2021/08/04 06:06:13;;;;;;;63.25;17.05;;;;;;;21.68;63.50;99969.61;1659162;86;21612;-69
2021/08/04 06:08:39;;;;;;;77.03;18.75;;;;;;;21.77;63.61;99968.30;1662873;85;22888;-70
2021/08/04 06:11:06;;;;;;;74.55;17.60;;;;;;;21.79;62.92;99969.33;1648128;86;20951;-69
2021/08/04 06:13:33;;;;;;;64.25;14.75;;;;;;;21.73;62.29;99976.31;1663131;85;21583;-71
2021/08/04 06:16:01;;;;;;;43.60;11.57;;;;;;;21.79;62.53;99976.98;1662955;85;21066;-69
2021/08/04 06:18:27;;;;;;;51.33;12.60;;;;;;;21.81;62.12;99972.02;1663286;85;21015;-70
2021/08/04 06:20:53;;;;;;;33.80;8.45;;;;;;;21.84;62.16;99975.47;1656465;86;21161;-70
2021/08/04 06:23:20;;;;;;;27.05;7.50;;;;;;;21.89;61.62;99967.11;1635286;86;21044;-69
2021/08/04 06:25:48;;;;;;;33.58;7.45;;;;;;;21.96;61.55;99964.77;1658971;86;21003;-70
2021/08/04 06:28:14;;;;;;;46.60;7.92;;;;;;;22.07;61.16;99963.31;1634839;86;21024;-71
2021/08/04 06:30:40;;;;;;;29.45;7.08;;;;;;;22.18;60.85;99964.63;1648344;85;21051;-69
2021/08/04 06:33:08;;;;;;;13.50;6.30;;;;;;;22.31;60.29;99962.06;1634749;87;21108;-69
2021/08/04 06:35:37;;;;;;;5.78;4.20;;;;;;;22.33;58.50;99963.37;1634843;87;21102;-68
2021/08/04 06:38:03;;;;;;;6.25;5.12;;;;;;;22.35;58.81;99963.05;1634862;87;21106;-69
2021/08/04 06:40:29;;;;;;;9.28;4.50;;;;;;;22.36;58.92;99968.75;1656856;86;21036;-69
2021/08/04 06:42:56;;;;;;;7.60;3.85;;;;;;;22.38;58.87;99972.00;1660399;85;20988;-70
2021/08/04 06:45:24;;;;;;;7.12;3.58;;;;;;;22.40;58.05;99976.58;1658839;86;21102;-69
2021/08/04 06:47:50;;;;;;;5.00;3.55;;;;;;;22.42;56.21;99979.81;1659978;85;20912;-70
2021/08/04 06:50:18;;;;;;;9.93;4.60;;;;;;;22.43;56.18;99972.65;1659112;86;20972;-69
2021/08/04 06:52:45;;;;;;;9.20;4.42;;;;;;;22.49;54.91;99978.19;1660369;85;20955;-68
2021/08/04 06:55:11;;;;;;;9.55;3.95;;;;;;;22.59;54.96;99982.55;1659531;86;21082;-69
2021/08/04 06:57:38;;;;;;;6.83;4.35;;;;;;;22.68;53.86;99983.39;1638461;87;21346;-69
2021/08/04 07:00:06;;;;;;;7.42;4.80;;;;;;;22.77;52.71;99988.89;1646941;86;21083;-69
2021/08/04 07:02:32;;;;;;;3.42;3.12;;;;;;;22.87;52.31;99985.27;1660264;86;21086;-69
2021/08/04 07:04:59;;;;;;;6.00;3.52;;;;;;;22.93;51.23;99989.43;1644420;86;21067;-70
2021/08/04 07:07:25;;;;;;;3.80;2.75;;;;;;;22.97;50.21;99980.78;1660374;86;21083;-68
2021/08/04 07:09:51;;;;;;;4.30;2.83;;;;;;;22.99;50.23;99976.36;1659198;86;21011;-69
2021/08/04 07:12:18;;;;;;;3.08;2.65;;;;;;;23.00;49.94;99972.48;1660317;86;21007;-70
2021/08/04 07:14:44;;;;;;;3.75;3.27;;;;;;;23.03;49.50;99973.20;1659371;86;20992;-70
2021/08/04 07:17:10;;;;;;;5.28;3.72;;;;;;;23.09;49.80;99973.27;1644732;86;20990;-68
2021/08/04 07:19:37;;;;;;;7.15;3.42;;;;;;;23.16;46.83;99980.45;1644094;86;21713;-69
2021/08/04 07:22:04;;;;;;;5.67;3.22;;;;;;;23.18;46.13;99969.94;1657789;86;22698;-68
2021/08/04 07:24:30;;;;;;;3.72;2.98;;;;;;;23.25;46.29;99970.83;1654601;86;21032;-70
2021/08/04 07:26:57;;;;;;;5.83;3.10;;;;;;;23.33;46.82;99971.36;1629826;86;21103;-72
2021/08/04 07:29:23;;;;;;;6.80;2.20;;;;;;;23.37;46.62;99970.37;1659927;86;21035;-70
2021/08/04 07:31:50;;;;;;;3.17;2.55;;;;;;;23.39;42.27;99969.49;1659290;86;21096;-72
2021/08/04 07:34:21;;;;;;;5.20;2.05;;;;;;;23.42;43.33;99963.89;1660282;86;23337;-68
2021/08/04 07:36:45;;;;;;;5.97;2.10;;;;;;;23.46;43.26;99957.45;1631592;87;21695;-70
2021/08/04 07:39:11;;;;;;;3.05;2.58;;;;;;;23.47;43.24;99956.89;1659993;85;20976;-69
2021/08/04 07:41:37;;;;;;;5.28;2.75;;;;;;;23.50;42.92;99954.06;1658093;86;22051;-69
2021/08/04 07:44:05;;;;;;;3.25;2.20;;;;;;;23.57;43.35;99957.09;1660256;86;21082;-69
2021/08/04 07:46:32;;;;;;;4.08;3.67;;;;;;;23.67;43.36;99962.22;1659278;86;21103;-68
2021/08/04 07:48:58;;;;;;;12.82;9.13;;;;;;;23.74;42.52;99963.30;1644797;86;20978;-69
2021/08/04 07:51:24;;;;;;;3.40;3.10;;;;;;;23.84;42.29;99963.49;1636314;86;21016;-69
2021/08/04 07:53:51;;;;;;;4.17;3.45;;;;;;;23.85;42.13;99959.05;1660202;86;21561;-70
2021/08/04 07:56:22;;;;;;;4.10;2.72;;;;;;;23.84;42.40;99957.44;1659268;86;21019;-69
2021/08/04 07:58:47;;;;;;;14.65;2.90;;;;;;;23.94;43.28;99956.81;1658281;86;21599;-75
2021/08/04 08:01:14;;;;;;;2.77;2.15;;;;;;;24.03;42.08;99957.59;1659266;86;21079;-69
2021/08/04 08:03:40;;;;;;;3.70;1.80;;;;;;;24.05;41.29;99958.86;1660289;85;21550;-68
2021/08/04 08:06:06;;;;;;;3.90;2.92;;;;;;;24.04;40.55;99958.62;1659278;86;20968;-69
2021/08/04 08:08:33;;;;;;;2.25;2.05;;;;;;;24.03;40.49;99959.75;1644181;86;21066;-69
2021/08/04 08:11:01;;;;;;;2.72;2.52;;;;;;;24.04;40.28;99967.42;1643548;86;21126;-70
2021/08/04 08:13:28;;;;;;;2.20;2.00;;;;;;;24.07;39.66;99955.79;1630654;86;21536;-71
2021/08/04 08:15:54;;;;;;;2.00;1.90;;;;;;;24.06;39.17;99962.42;1658317;86;21508;-73
2021/08/04 08:18:22;;;;;;;3.42;1.85;;;;;;;24.00;37.77;99969.23;1659358;86;21019;-68
2021/08/04 08:20:50;;;;;;;6.67;2.27;;;;;;;23.97;38.06;99969.34;1630592;87;20951;-68
2021/08/04 08:23:16;;;;;;;5.62;2.10;;;;;;;23.99;39.08;99968.42;1615259;88;21811;-70
2021/08/04 08:25:43;;;;;;;4.65;2.22;;;;;;;24.05;39.01;99966.30;1622762;86;21024;-69
2021/08/04 08:28:09;;;;;;;3.35;2.20;;;;;;;24.04;39.29;99966.86;1654247;86;21052;-70
2021/08/04 08:30:36;;;;;;;7.17;2.37;;;;;;;24.10;39.71;99960.05;1660079;85;21012;-70
2021/08/04 08:33:03;;;;;;;2.45;2.25;;;;;;;24.16;39.38;99962.03;1632160;87;21043;-69
2021/08/04 08:35:34;;;;;;;3.33;2.70;;;;;;;24.21;39.37;99955.80;1658207;86;21109;-70
2021/08/04 08:37:59;;;;;;;4.45;2.30;;;;;;;24.26;38.52;99956.98;1659552;85;21033;-69
2021/08/04 08:40:25;;;;;;;3.52;2.67;;;;;;;24.22;37.95;99949.14;1635192;86;21011;-69
2021/08/04 08:42:53;;;;;;;10.03;4.15;;;;;;;24.25;38.63;99955.37;1664938;85;21172;-68
2021/08/04 08:45:22;;;;;;;2.60;2.40;;;;;;;24.32;38.20;99954.25;1646091;86;21056;-71
2021/08/04 08:47:49;;;;;;;3.70;2.55;;;;;;;24.37;37.98;99957.94;1661017;85;21303;-69
2021/08/04 08:50:18;;;;;;;2.67;2.45;;;;;;;24.40;37.89;99960.03;1639736;86;21542;-69
2021/08/04 08:52:49;;;;;;;3.83;3.25;;;;;;;24.38;37.90;99949.36;1644229;86;21058;-70
2021/08/04 08:55:16;;;;;;;5.15;2.55;;;;;;;24.40;37.17;99945.72;1656649;86;22214;-71
2021/08/04 08:57:43;;;;;;;2.92;2.47;;;;;;;24.42;37.02;99937.92;1656768;86;21031;-69
2021/08/04 09:00:12;;;;;;;1.82;1.72;;;;;;;24.42;37.11;99936.55;1671929;85;21975;-69
2021/08/04 09:02:41;;;;;;;3.35;2.12;;;;;;;24.50;37.07;99945.31;1665290;86;20949;-71
2021/08/04 09:05:09;;;;;;;2.83;2.47;;;;;;;24.58;36.99;99940.87;1645863;86;21039;-68
2021/08/04 09:07:38;;;;;;;4.15;2.67;;;;;;;24.62;36.97;99938.48;1666778;86;21008;-69
2021/08/04 09:10:30;;;;;;;2.27;2.08;;;;;;;24.64;37.40;99934.03;1667802;86;20983;-69
2021/08/04 09:12:59;;;;;;;3.33;2.25;;;;;;;24.69;37.54;99935.20;1670630;84;21534;-72
2021/08/04 09:15:37;;;;;;;5.15;2.55;;;;;;;24.71;37.81;99935.08;1672102;84;21478;-69
2021/08/04 09:18:09;;;;;;;4.03;2.77;;;;;;;24.76;37.88;99925.81;1661015;85;21050;-69
2021/08/04 09:20:52;;;;;;;2.65;2.45;;;;;;;24.81;38.01;99920.09;1661136;85;21027;-70
2021/08/04 09:23:16;;;;;;;3.22;2.30;;;;;;;24.86;37.93;99919.89;1644550;86;21339;-69
2021/08/04 09:26:11;;;;;;;4.35;3.27;;;;;;;24.98;38.75;99912.28;1665664;86;20991;-70
2021/08/04 09:29:03;;;;;;;6.65;3.72;;;;;;;25.15;38.54;99908.76;1659287;85;21118;-69
2021/08/04 09:31:53;;;;;;;2.80;2.60;;;;;;;25.32;38.29;99900.88;1661087;85;20962;-69
2021/08/04 09:34:40;;;;;;;4.17;2.47;;;;;;;25.49;38.94;99906.73;1673502;85;21536;-69
2021/08/04 09:37:16;;;;;;;3.20;2.72;;;;;;;25.60;38.33;99901.84;1647411;86;21071;-69
2021/08/04 09:39:56;;;;;;;2.75;2.55;;;;;;;25.71;38.39;99895.27;1668098;85;21761;-70
2021/08/04 09:42:42;;;;;;;4.03;2.90;;;;;;;25.78;38.01;99897.45;1668965;85;21034;-70
2021/08/04 09:45:11;;;;;;;4.60;2.60;;;;;;;25.80;38.35;99897.92;1640309;86;21528;-70
2021/08/04 09:47:37;;;;;;;3.35;3.05;;;;;;;25.90;38.52;99900.20;1649805;86;21083;-70
2021/08/04 09:50:08;;;;;;;2.55;2.17;;;;;;;26.03;38.44;99895.70;1619383;86;21102;-70
2021/08/04 09:52:35;;;;;;;4.20;3.00;;;;;;;26.14;38.17;99904.88;1653880;86;21141;-69
2021/08/04 09:55:16;;;;;;;3.75;3.22;;;;;;;26.18;37.86;99896.13;1653613;86;21052;-71
2021/08/04 09:57:51;;;;;;;5.53;3.08;;;;;;;26.18;37.83;99903.02;1625689;86;20972;-69
2021/08/04 10:00:20;;;;;;;3.87;2.85;;;;;;;26.21;37.23;99905.91;1654840;86;21036;-69
2021/08/04 10:02:46;;;;;;;5.40;2.50;;;;;;;26.31;37.19;99905.42;1653441;86;21067;-69
2021/08/04 10:05:25;;;;;;;5.33;2.90;;;;;;;26.40;36.99;99901.94;1654042;86;21817;-69
2021/08/04 10:08:08;;;;;;;5.25;2.80;;;;;;;26.50;37.40;99903.97;1655371;86;21122;-69
2021/08/04 10:10:44;;;;;;;3.33;3.00;;;;;;;26.64;37.34;99898.28;1637712;87;21643;-69
2021/08/04 10:13:14;;;;;;;3.47;2.98;;;;;;;26.79;37.20;99898.91;1646451;86;20933;-71
2021/08/04 10:15:43;;;;;;;5.53;2.62;;;;;;;26.87;36.76;99889.67;1653193;86;21604;-69
2021/08/04 10:18:20;;;;;;;3.40;2.77;;;;;;;26.96;36.85;99892.84;1629898;86;21076;-69
2021/08/04 10:20:44;;;;;;;3.15;2.65;;;;;;;27.03;36.55;99889.70;1658786;85;20990;-72
2021/08/04 10:23:16;;;;;;;2.50;2.30;;;;;;;27.11;35.97;99887.34;1660261;85;21044;-73
2021/08/04 10:25:43;;;;;;;9.40;5.73;;;;;;;27.15;35.94;99888.23;1655063;86;21521;-72
2021/08/04 10:28:10;;;;;;;3.67;2.80;;;;;;;27.18;36.03;99880.63;1659778;85;21087;-70
2021/08/04 10:30:37;;;;;;;6.50;2.87;;;;;;;27.29;35.87;99880.30;1634194;86;21886;-74
2021/08/04 10:33:05;;;;;;;7.25;3.10;;;;;;;27.33;35.58;99881.22;1651186;86;20970;-74
2021/08/04 10:35:33;;;;;;;7.60;4.85;;;;;;;27.40;35.88;99881.95;1617539;86;20923;-75
2021/08/04 10:38:00;;;;;;;4.87;3.12;;;;;;;27.46;35.67;99886.63;1655163;86;21112;-78
2021/08/04 10:40:27;;;;;;;3.37;2.65;;;;;;;27.48;35.55;99885.71;1629649;86;20925;-74
2021/08/04 10:42:53;;;;;;;3.95;2.22;;;;;;;27.51;35.54;99886.39;1632779;85;21901;-75
2021/08/04 10:45:28;;;;;;;6.20;2.95;;;;;;;27.52;35.84;99889.39;1673998;85;20887;-70
2021/08/04 10:47:59;;;;;;;2.85;2.60;;;;;;;27.44;35.66;99887.55;1647616;86;21012;-70
2021/08/04 10:50:26;;;;;;;2.98;2.77;;;;;;;27.42;35.93;99889.31;1674024;85;21483;-70
2021/08/04 10:53:03;;;;;;;4.58;2.30;;;;;;;27.36;35.57;99883.83;1674480;85;21037;-70
2021/08/04 10:55:32;;;;;;;2.67;2.47;;;;;;;27.33;35.77;99881.80;1674219;85;20960;-68
2021/08/04 10:58:07;;;;;;;5.15;2.37;;;;;;;27.33;35.63;99881.22;1667944;85;20907;-71
2021/08/04 11:00:36;;;;;;;6.22;2.67;;;;;;;27.40;35.85;99883.91;1665917;84;20988;-71
2021/08/04 11:03:31;;;;;;;4.42;2.60;;;;;;;27.41;35.53;99876.66;1646015;86;20968;-71
2021/08/04 11:06:10;;;;;;;3.72;2.40;;;;;;;27.48;35.35;99875.43;1673961;85;21467;-71
2021/08/04 11:08:38;;;;;;;2.92;2.60;;;;;;;27.59;35.02;99879.30;1647488;86;21019;-74
2021/08/04 11:11:05;;;;;;;11.20;2.70;;;;;;;27.58;34.83;99876.88;1673478;85;20931;-76
2021/08/04 11:13:52;;;;;;;4.55;2.75;;;;;;;27.59;35.36;99870.20;1648620;86;20971;-72
2021/08/04 11:16:34;;;;;;;3.27;2.98;;;;;;;27.64;35.65;99876.25;1660446;85;20986;-72
2021/08/04 11:19:09;;;;;;;5.03;2.20;;;;;;;27.75;35.00;99873.16;1669931;86;21437;-73
2021/08/04 11:21:37;;;;;;;3.27;2.80;;;;;;;27.79;34.21;99869.67;1660933;85;21194;-73
2021/08/04 11:24:06;;;;;;;2.52;2.30;;;;;;;27.68;34.80;99870.80;1670226;86;21187;-73
2021/08/04 11:26:37;;;;;;;4.17;3.40;;;;;;;27.72;34.66;99875.25;1673947;84;20942;-74
2021/08/04 11:29:07;;;;;;;14.70;2.87;;;;;;;27.83;34.32;99863.63;1621027;87;21071;-73
2021/08/04 11:31:33;;;;;;;2.42;2.22;;;;;;;27.97;34.29;99861.19;1656808;85;20916;-73
2021/08/04 11:34:29;;;;;;;3.47;2.72;;;;;;;28.16;33.63;99874.48;1641729;86;27913;-77
2021/08/04 11:37:00;;;;;;;4.20;2.35;;;;;;;28.19;33.70;99866.05;1661774;85;20946;-76
2021/08/04 11:39:27;;;;;;;4.33;2.25;;;;;;;28.21;33.70;99872.59;1646320;86;20976;-77
2021/08/04 11:41:53;;;;;;;3.72;2.27;;;;;;;28.17;33.45;99871.14;1668056;86;20995;-73